sensor_id;sensor_type;location;lat;lon;timestamp;P1;durP1;ratioP1;P2;durP2;ratioP2
8001;SDS011;4046;48.774;8.732;2023-08-31T00:02:16;1.80;;;1.40;;
8001;SDS011;4046;48.774;8.732;2023-08-31T00:04:42;1.97;;;1.20;;
8001;SDS011;4046;48.774;8.732;2023-08-31T00:07:08;1.43;;;1.33;;
8001;SDS011;4046;48.774;8.732;2023-08-31T00:09:33;1.97;;;1.30;;
8001;SDS011;4046;48.774;8.732;2023-08-31T00:12:01;1.93;;;1.50;;
8001;SDS011;4046;48.774;8.732;2023-08-31T00:14:28;1.60;;;1.50;;
8001;SDS011;4046;48.774;8.732;2023-08-31T00:16:53;1.70;;;1.50;;
8001;SDS011;4046;48.774;8.732;2023-08-31T00:19:22;1.60;;;1.20;;
8001;SDS011;4046;48.774;8.732;2023-08-31T00:21:48;1.90;;;1.50;;
8001;SDS011;4046;48.774;8.732;2023-08-31T00:24:14;1.63;;;1.53;;
8001;SDS011;4046;48.774;8.732;2023-08-31T00:26:40;1.60;;;1.47;;
8001;SDS011;4046;48.774;8.732;2023-08-31T00:29:08;2.93;;;1.93;;
8001;SDS011;4046;48.774;8.732;2023-08-31T00:31:36;1.40;;;1.30;;
8001;SDS011;4046;48.774;8.732;2023-08-31T00:34:02;1.40;;;1.30;;
8001;SDS011;4046;48.774;8.732;2023-08-31T00:36:32;1.87;;;1.50;;
8001;SDS011;4046;48.774;8.732;2023-08-31T00:38:58;1.53;;;1.43;;
8001;SDS011;4046;48.774;8.732;2023-08-31T00:41:30;1.60;;;1.40;;
8001;SDS011;4046;48.774;8.732;2023-08-31T00:43:56;1.87;;;1.77;;
8001;SDS011;4046;48.774;8.732;2023-08-31T00:46:22;1.70;;;1.50;;
8001;SDS011;4046;48.774;8.732;2023-08-31T00:48:48;1.43;;;1.33;;
8001;SDS011;4046;48.774;8.732;2023-08-31T00:51:13;1.50;;;1.40;;
8001;SDS011;4046;48.774;8.732;2023-08-31T00:53:39;1.60;;;1.50;;
8001;SDS011;4046;48.774;8.732;2023-08-31T00:56:05;2.33;;;1.50;;
8001;SDS011;4046;48.774;8.732;2023-08-31T00:58:32;1.50;;;1.40;;
8001;SDS011;4046;48.774;8.732;2023-08-31T01:09:34;1.47;;;1.20;;
8001;SDS011;4046;48.774;8.732;2023-08-31T01:12:11;1.33;;;1.20;;
8001;SDS011;4046;48.774;8.732;2023-08-31T01:14:43;1.40;;;1.30;;
8001;SDS011;4046;48.774;8.732;2023-08-31T01:17:16;1.30;;;1.17;;
8001;SDS011;4046;48.774;8.732;2023-08-31T01:19:47;1.60;;;1.40;;
8001;SDS011;4046;48.774;8.732;2023-08-31T01:22:25;1.30;;;1.20;;
8001;SDS011;4046;48.774;8.732;2023-08-31T01:24:52;1.30;;;1.20;;
8001;SDS011;4046;48.774;8.732;2023-08-31T01:27:19;1.50;;;1.37;;
8001;SDS011;4046;48.774;8.732;2023-08-31T01:29:46;1.33;;;1.10;;
8001;SDS011;4046;48.774;8.732;2023-08-31T01:32:11;1.40;;;1.30;;
8001;SDS011;4046;48.774;8.732;2023-08-31T01:34:38;1.37;;;1.20;;
8001;SDS011;4046;48.774;8.732;2023-08-31T01:37:07;1.60;;;1.50;;
8001;SDS011;4046;48.774;8.732;2023-08-31T01:42:11;1.30;;;1.10;;
8001;SDS011;4046;48.774;8.732;2023-08-31T01:44:39;2.27;;;1.57;;
8001;SDS011;4046;48.774;8.732;2023-08-31T01:47:05;2.73;;;1.60;;
8001;SDS011;4046;48.774;8.732;2023-08-31T01:49:35;1.40;;;1.00;;
8001;SDS011;4046;48.774;8.732;2023-08-31T01:52:02;1.30;;;1.20;;
8001;SDS011;4046;48.774;8.732;2023-08-31T01:54:27;1.30;;;1.20;;
8001;SDS011;4046;48.774;8.732;2023-08-31T01:56:54;2.00;;;1.20;;
8001;SDS011;4046;48.774;8.732;2023-08-31T01:59:19;1.90;;;1.10;;
8001;SDS011;4046;48.774;8.732;2023-08-31T02:01:45;1.40;;;1.30;;
8001;SDS011;4046;48.774;8.732;2023-08-31T02:04:12;2.10;;;1.23;;
8001;SDS011;4046;48.774;8.732;2023-08-31T02:06:37;1.50;;;1.40;;
8001;SDS011;4046;48.774;8.732;2023-08-31T02:09:04;1.30;;;1.20;;
8001;SDS011;4046;48.774;8.732;2023-08-31T02:11:30;2.03;;;1.30;;
8001;SDS011;4046;48.774;8.732;2023-08-31T02:14:05;1.57;;;1.40;;
8001;SDS011;4046;48.774;8.732;2023-08-31T02:16:33;1.70;;;1.20;;
8001;SDS011;4046;48.774;8.732;2023-08-31T02:18:59;4.17;;;1.70;;
8001;SDS011;4046;48.774;8.732;2023-08-31T02:21:25;1.40;;;1.20;;
8001;SDS011;4046;48.774;8.732;2023-08-31T02:23:50;1.40;;;1.30;;
8001;SDS011;4046;48.774;8.732;2023-08-31T02:26:16;1.40;;;1.20;;
8001;SDS011;4046;48.774;8.732;2023-08-31T02:28:42;1.30;;;1.10;;
8001;SDS011;4046;48.774;8.732;2023-08-31T02:31:09;2.57;;;1.33;;
8001;SDS011;4046;48.774;8.732;2023-08-31T02:33:36;1.37;;;1.13;;
8001;SDS011;4046;48.774;8.732;2023-08-31T02:36:02;1.40;;;1.30;;
8001;SDS011;4046;48.774;8.732;2023-08-31T02:38:28;1.90;;;1.07;;
8001;SDS011;4046;48.774;8.732;2023-08-31T02:40:54;1.80;;;1.60;;
8001;SDS011;4046;48.774;8.732;2023-08-31T02:43:19;1.30;;;1.10;;
8001;SDS011;4046;48.774;8.732;2023-08-31T02:45:45;1.60;;;1.13;;
8001;SDS011;4046;48.774;8.732;2023-08-31T02:48:11;1.60;;;1.50;;
8001;SDS011;4046;48.774;8.732;2023-08-31T02:50:37;1.43;;;1.30;;
8001;SDS011;4046;48.774;8.732;2023-08-31T02:53:03;2.00;;;1.27;;
8001;SDS011;4046;48.774;8.732;2023-08-31T02:55:31;1.40;;;1.27;;
8001;SDS011;4046;48.774;8.732;2023-08-31T02:57:57;1.30;;;1.10;;
8001;SDS011;4046;48.774;8.732;2023-08-31T03:00:24;1.43;;;1.33;;
8001;SDS011;4046;48.774;8.732;2023-08-31T03:02:50;1.37;;;1.20;;
8001;SDS011;4046;48.774;8.732;2023-08-31T03:05:19;1.40;;;1.20;;
8001;SDS011;4046;48.774;8.732;2023-08-31T03:07:46;1.47;;;1.30;;
8001;SDS011;4046;48.774;8.732;2023-08-31T03:10:12;1.77;;;1.20;;
8001;SDS011;4046;48.774;8.732;2023-08-31T03:12:38;1.63;;;1.40;;
8001;SDS011;4046;48.774;8.732;2023-08-31T03:15:04;1.40;;;1.30;;
8001;SDS011;4046;48.774;8.732;2023-08-31T03:17:31;1.50;;;1.20;;
8001;SDS011;4046;48.774;8.732;2023-08-31T03:19:56;1.37;;;1.20;;
8001;SDS011;4046;48.774;8.732;2023-08-31T03:22:22;1.60;;;1.50;;
8001;SDS011;4046;48.774;8.732;2023-08-31T03:24:48;1.30;;;1.20;;
8001;SDS011;4046;48.774;8.732;2023-08-31T03:27:14;1.37;;;1.23;;
8001;SDS011;4046;48.774;8.732;2023-08-31T03:29:41;1.30;;;1.20;;
8001;SDS011;4046;48.774;8.732;2023-08-31T03:32:07;1.40;;;1.20;;
8001;SDS011;4046;48.774;8.732;2023-08-31T03:34:32;1.40;;;1.00;;
8001;SDS011;4046;48.774;8.732;2023-08-31T03:36:58;1.40;;;1.20;;
8001;SDS011;4046;48.774;8.732;2023-08-31T03:39:24;1.70;;;1.30;;
8001;SDS011;4046;48.774;8.732;2023-08-31T03:41:50;1.63;;;1.30;;
8001;SDS011;4046;48.774;8.732;2023-08-31T03:44:16;1.30;;;1.10;;
8001;SDS011;4046;48.774;8.732;2023-08-31T03:46:42;1.37;;;1.13;;
8001;SDS011;4046;48.774;8.732;2023-08-31T03:49:08;1.30;;;1.20;;
8001;SDS011;4046;48.774;8.732;2023-08-31T03:51:34;2.10;;;1.27;;
8001;SDS011;4046;48.774;8.732;2023-08-31T03:54:00;1.77;;;1.50;;
8001;SDS011;4046;48.774;8.732;2023-08-31T03:56:26;1.40;;;1.30;;
8001;SDS011;4046;48.774;8.732;2023-08-31T03:58:52;1.30;;;1.03;;
8001;SDS011;4046;48.774;8.732;2023-08-31T04:01:18;1.23;;;1.00;;
8001;SDS011;4046;48.774;8.732;2023-08-31T04:03:44;1.40;;;1.30;;
8001;SDS011;4046;48.774;8.732;2023-08-31T04:06:09;1.70;;;1.20;;
8001;SDS011;4046;48.774;8.732;2023-08-31T04:08:35;1.20;;;0.90;;
8001;SDS011;4046;48.774;8.732;2023-08-31T04:11:01;1.50;;;1.37;;
8001;SDS011;4046;48.774;8.732;2023-08-31T04:13:28;1.73;;;1.10;;
8001;SDS011;4046;48.774;8.732;2023-08-31T04:15:54;1.40;;;1.30;;
8001;SDS011;4046;48.774;8.732;2023-08-31T04:18:20;1.30;;;1.20;;
8001;SDS011;4046;48.774;8.732;2023-08-31T04:20:50;1.97;;;1.20;;
8001;SDS011;4046;48.774;8.732;2023-08-31T04:23:17;1.30;;;1.20;;
8001;SDS011;4046;48.774;8.732;2023-08-31T04:25:43;1.30;;;1.13;;
8001;SDS011;4046;48.774;8.732;2023-08-31T04:28:10;1.93;;;1.30;;
8001;SDS011;4046;48.774;8.732;2023-08-31T04:30:36;1.53;;;1.43;;
8001;SDS011;4046;48.774;8.732;2023-08-31T04:33:02;1.30;;;1.10;;
8001;SDS011;4046;48.774;8.732;2023-08-31T04:35:30;1.40;;;1.30;;
8001;SDS011;4046;48.774;8.732;2023-08-31T04:37:56;1.30;;;1.13;;
8001;SDS011;4046;48.774;8.732;2023-08-31T04:40:22;1.30;;;1.17;;
8001;SDS011;4046;48.774;8.732;2023-08-31T04:42:49;1.40;;;1.13;;
8001;SDS011;4046;48.774;8.732;2023-08-31T04:45:16;1.40;;;1.23;;
8001;SDS011;4046;48.774;8.732;2023-08-31T04:47:42;1.37;;;1.10;;
8001;SDS011;4046;48.774;8.732;2023-08-31T04:50:08;1.40;;;1.10;;
8001;SDS011;4046;48.774;8.732;2023-08-31T04:52:34;1.47;;;1.20;;
8001;SDS011;4046;48.774;8.732;2023-08-31T04:55:00;1.60;;;1.50;;
8001;SDS011;4046;48.774;8.732;2023-08-31T04:57:28;1.33;;;1.13;;
8001;SDS011;4046;48.774;8.732;2023-08-31T04:59:54;1.50;;;1.30;;
8001;SDS011;4046;48.774;8.732;2023-08-31T05:02:20;1.40;;;1.30;;
8001;SDS011;4046;48.774;8.732;2023-08-31T05:04:46;1.30;;;1.20;;
8001;SDS011;4046;48.774;8.732;2023-08-31T05:07:12;1.30;;;1.00;;
8001;SDS011;4046;48.774;8.732;2023-08-31T05:09:37;1.37;;;1.20;;
8001;SDS011;4046;48.774;8.732;2023-08-31T05:12:03;1.60;;;1.20;;
8001;SDS011;4046;48.774;8.732;2023-08-31T05:14:29;1.30;;;1.10;;
8001;SDS011;4046;48.774;8.732;2023-08-31T05:16:55;1.30;;;1.20;;
8001;SDS011;4046;48.774;8.732;2023-08-31T05:19:21;1.37;;;1.13;;
8001;SDS011;4046;48.774;8.732;2023-08-31T05:21:47;3.10;;;1.97;;
8001;SDS011;4046;48.774;8.732;2023-08-31T05:24:13;1.30;;;1.00;;
8001;SDS011;4046;48.774;8.732;2023-08-31T05:26:39;1.67;;;1.30;;
8001;SDS011;4046;48.774;8.732;2023-08-31T05:29:04;1.40;;;1.30;;
8001;SDS011;4046;48.774;8.732;2023-08-31T05:31:31;1.50;;;1.20;;
8001;SDS011;4046;48.774;8.732;2023-08-31T05:33:57;1.50;;;1.40;;
8001;SDS011;4046;48.774;8.732;2023-08-31T05:36:23;1.37;;;1.27;;
8001;SDS011;4046;48.774;8.732;2023-08-31T05:38:50;1.50;;;1.40;;
8001;SDS011;4046;48.774;8.732;2023-08-31T05:41:16;1.77;;;1.20;;
8001;SDS011;4046;48.774;8.732;2023-08-31T05:43:42;1.30;;;1.17;;
8001;SDS011;4046;48.774;8.732;2023-08-31T05:46:08;1.50;;;1.17;;
8001;SDS011;4046;48.774;8.732;2023-08-31T05:48:34;1.30;;;1.03;;
8001;SDS011;4046;48.774;8.732;2023-08-31T05:51:01;1.40;;;1.00;;
8001;SDS011;4046;48.774;8.732;2023-08-31T05:53:29;1.30;;;1.13;;
8001;SDS011;4046;48.774;8.732;2023-08-31T05:55:56;1.67;;;1.27;;
8001;SDS011;4046;48.774;8.732;2023-08-31T05:58:32;1.43;;;1.17;;
8001;SDS011;4046;48.774;8.732;2023-08-31T06:01:00;1.60;;;1.27;;
8001;SDS011;4046;48.774;8.732;2023-08-31T06:03:26;1.37;;;1.10;;
8001;SDS011;4046;48.774;8.732;2023-08-31T06:05:53;2.03;;;1.10;;
8001;SDS011;4046;48.774;8.732;2023-08-31T06:08:18;1.20;;;0.90;;
8001;SDS011;4046;48.774;8.732;2023-08-31T06:10:44;2.10;;;1.50;;
8001;SDS011;4046;48.774;8.732;2023-08-31T06:13:10;1.50;;;1.40;;
8001;SDS011;4046;48.774;8.732;2023-08-31T06:15:36;1.30;;;1.20;;
8001;SDS011;4046;48.774;8.732;2023-08-31T06:18:01;1.40;;;1.30;;
8001;SDS011;4046;48.774;8.732;2023-08-31T06:20:28;1.67;;;1.20;;
8001;SDS011;4046;48.774;8.732;2023-08-31T06:22:53;1.50;;;1.40;;
8001;SDS011;4046;48.774;8.732;2023-08-31T06:25:19;1.30;;;1.20;;
8001;SDS011;4046;48.774;8.732;2023-08-31T06:27:46;2.67;;;1.40;;
8001;SDS011;4046;48.774;8.732;2023-08-31T06:30:12;2.37;;;1.13;;
8001;SDS011;4046;48.774;8.732;2023-08-31T06:32:44;1.30;;;1.20;;
8001;SDS011;4046;48.774;8.732;2023-08-31T06:35:12;2.83;;;1.30;;
8001;SDS011;4046;48.774;8.732;2023-08-31T06:37:39;1.20;;;0.90;;
8001;SDS011;4046;48.774;8.732;2023-08-31T06:40:06;1.90;;;1.30;;
8001;SDS011;4046;48.774;8.732;2023-08-31T06:42:34;6.33;;;1.43;;
8001;SDS011;4046;48.774;8.732;2023-08-31T06:45:01;2.30;;;1.10;;
8001;SDS011;4046;48.774;8.732;2023-08-31T06:47:28;3.20;;;1.30;;
8001;SDS011;4046;48.774;8.732;2023-08-31T06:49:54;1.87;;;1.20;;
8001;SDS011;4046;48.774;8.732;2023-08-31T06:52:20;1.47;;;1.20;;
8001;SDS011;4046;48.774;8.732;2023-08-31T06:54:45;1.50;;;1.23;;
8001;SDS011;4046;48.774;8.732;2023-08-31T06:57:11;5.90;;;1.60;;
8001;SDS011;4046;48.774;8.732;2023-08-31T06:59:37;3.00;;;1.30;;
8001;SDS011;4046;48.774;8.732;2023-08-31T07:02:02;6.07;;;1.50;;
8001;SDS011;4046;48.774;8.732;2023-08-31T07:04:28;1.40;;;1.07;;
8001;SDS011;4046;48.774;8.732;2023-08-31T07:06:54;2.87;;;1.57;;
8001;SDS011;4046;48.774;8.732;2023-08-31T07:09:19;5.07;;;1.20;;
8001;SDS011;4046;48.774;8.732;2023-08-31T07:11:45;3.67;;;1.10;;
8001;SDS011;4046;48.774;8.732;2023-08-31T07:14:11;2.57;;;1.20;;
8001;SDS011;4046;48.774;8.732;2023-08-31T07:16:36;1.60;;;1.30;;
8001;SDS011;4046;48.774;8.732;2023-08-31T07:19:02;2.43;;;1.10;;
8001;SDS011;4046;48.774;8.732;2023-08-31T07:21:28;2.00;;;1.20;;
8001;SDS011;4046;48.774;8.732;2023-08-31T07:23:54;1.60;;;1.50;;
8001;SDS011;4046;48.774;8.732;2023-08-31T07:26:20;1.73;;;1.30;;
8001;SDS011;4046;48.774;8.732;2023-08-31T07:28:46;1.30;;;1.13;;
8001;SDS011;4046;48.774;8.732;2023-08-31T07:31:12;1.50;;;1.30;;
8001;SDS011;4046;48.774;8.732;2023-08-31T07:33:39;1.63;;;1.00;;
8001;SDS011;4046;48.774;8.732;2023-08-31T07:36:05;1.90;;;1.37;;
8001;SDS011;4046;48.774;8.732;2023-08-31T07:38:32;2.30;;;1.30;;
8001;SDS011;4046;48.774;8.732;2023-08-31T07:40:58;3.97;;;1.47;;
8001;SDS011;4046;48.774;8.732;2023-08-31T07:43:26;1.60;;;1.33;;
8001;SDS011;4046;48.774;8.732;2023-08-31T07:45:56;5.57;;;1.40;;
8001;SDS011;4046;48.774;8.732;2023-08-31T07:48:23;3.10;;;1.20;;
8001;SDS011;4046;48.774;8.732;2023-08-31T07:50:48;1.60;;;1.37;;
8001;SDS011;4046;48.774;8.732;2023-08-31T07:53:14;2.83;;;1.30;;
8001;SDS011;4046;48.774;8.732;2023-08-31T07:55:40;1.77;;;1.20;;
8001;SDS011;4046;48.774;8.732;2023-08-31T07:58:06;2.23;;;1.00;;
8001;SDS011;4046;48.774;8.732;2023-08-31T08:00:32;1.70;;;1.10;;
8001;SDS011;4046;48.774;8.732;2023-08-31T08:02:58;2.17;;;1.20;;
8001;SDS011;4046;48.774;8.732;2023-08-31T08:05:24;1.87;;;1.20;;
8001;SDS011;4046;48.774;8.732;2023-08-31T08:07:50;2.53;;;1.33;;
8001;SDS011;4046;48.774;8.732;2023-08-31T08:10:15;2.23;;;1.33;;
8001;SDS011;4046;48.774;8.732;2023-08-31T08:12:42;1.60;;;1.40;;
8001;SDS011;4046;48.774;8.732;2023-08-31T08:15:12;2.80;;;1.40;;
8001;SDS011;4046;48.774;8.732;2023-08-31T08:17:38;1.60;;;1.20;;
8001;SDS011;4046;48.774;8.732;2023-08-31T08:20:05;1.83;;;1.40;;
8001;SDS011;4046;48.774;8.732;2023-08-31T08:22:32;4.47;;;1.87;;
8001;SDS011;4046;48.774;8.732;2023-08-31T08:24:59;4.07;;;1.40;;
8001;SDS011;4046;48.774;8.732;2023-08-31T08:27:25;3.93;;;1.60;;
8001;SDS011;4046;48.774;8.732;2023-08-31T08:29:52;7.20;;;1.53;;
8001;SDS011;4046;48.774;8.732;2023-08-31T08:32:18;17.73;;;8.63;;
8001;SDS011;4046;48.774;8.732;2023-08-31T08:34:43;40.13;;;17.87;;
8001;SDS011;4046;48.774;8.732;2023-08-31T08:37:09;67.07;;;30.23;;
8001;SDS011;4046;48.774;8.732;2023-08-31T08:39:35;101.27;;;44.40;;
8001;SDS011;4046;48.774;8.732;2023-08-31T08:42:00;115.33;;;52.20;;
8001;SDS011;4046;48.774;8.732;2023-08-31T08:44:31;125.07;;;60.30;;
8001;SDS011;4046;48.774;8.732;2023-08-31T08:46:59;137.97;;;62.80;;
8001;SDS011;4046;48.774;8.732;2023-08-31T08:49:26;157.23;;;75.70;;
8001;SDS011;4046;48.774;8.732;2023-08-31T08:51:53;177.40;;;83.37;;
8001;SDS011;4046;48.774;8.732;2023-08-31T08:54:19;177.43;;;92.63;;
8001;SDS011;4046;48.774;8.732;2023-08-31T08:56:48;191.23;;;95.43;;
8001;SDS011;4046;48.774;8.732;2023-08-31T08:59:14;208.87;;;101.37;;
8001;SDS011;4046;48.774;8.732;2023-08-31T09:01:40;195.57;;;102.23;;
8001;SDS011;4046;48.774;8.732;2023-08-31T09:04:06;184.73;;;98.77;;
8001;SDS011;4046;48.774;8.732;2023-08-31T09:06:32;200.47;;;103.20;;
8001;SDS011;4046;48.774;8.732;2023-08-31T09:08:58;191.63;;;96.83;;
8001;SDS011;4046;48.774;8.732;2023-08-31T09:11:24;191.80;;;97.83;;
8001;SDS011;4046;48.774;8.732;2023-08-31T09:13:51;196.77;;;100.07;;
8001;SDS011;4046;48.774;8.732;2023-08-31T09:16:35;189.47;;;95.13;;
8001;SDS011;4046;48.774;8.732;2023-08-31T09:19:01;179.17;;;94.70;;
8001;SDS011;4046;48.774;8.732;2023-08-31T09:21:49;166.53;;;92.63;;
8001;SDS011;4046;48.774;8.732;2023-08-31T09:24:16;175.43;;;92.50;;
8001;SDS011;4046;48.774;8.732;2023-08-31T09:26:53;157.73;;;90.77;;
8001;SDS011;4046;48.774;8.732;2023-08-31T09:29:20;177.50;;;94.60;;
8001;SDS011;4046;48.774;8.732;2023-08-31T09:31:46;163.37;;;85.70;;
8001;SDS011;4046;48.774;8.732;2023-08-31T09:34:13;156.73;;;87.70;;
8001;SDS011;4046;48.774;8.732;2023-08-31T09:36:40;161.23;;;84.20;;
8001;SDS011;4046;48.774;8.732;2023-08-31T09:39:06;156.60;;;82.37;;
8001;SDS011;4046;48.774;8.732;2023-08-31T09:41:33;155.30;;;80.73;;
8001;SDS011;4046;48.774;8.732;2023-08-31T09:44:33;146.83;;;81.10;;
8001;SDS011;4046;48.774;8.732;2023-08-31T09:46:51;137.17;;;75.10;;
8001;SDS011;4046;48.774;8.732;2023-08-31T09:49:18;132.10;;;71.37;;
8001;SDS011;4046;48.774;8.732;2023-08-31T09:51:48;145.00;;;73.20;;
8001;SDS011;4046;48.774;8.732;2023-08-31T09:54:16;135.50;;;70.53;;
8001;SDS011;4046;48.774;8.732;2023-08-31T09:56:44;126.03;;;70.00;;
8001;SDS011;4046;48.774;8.732;2023-08-31T09:59:11;119.07;;;66.77;;
8001;SDS011;4046;48.774;8.732;2023-08-31T10:01:38;110.20;;;64.63;;
8001;SDS011;4046;48.774;8.732;2023-08-31T10:04:05;106.10;;;61.50;;
8001;SDS011;4046;48.774;8.732;2023-08-31T10:06:34;107.00;;;61.07;;
8001;SDS011;4046;48.774;8.732;2023-08-31T10:09:01;109.00;;;60.57;;
8001;SDS011;4046;48.774;8.732;2023-08-31T10:11:28;102.07;;;60.30;;
8001;SDS011;4046;48.774;8.732;2023-08-31T10:13:55;98.67;;;57.00;;
8001;SDS011;4046;48.774;8.732;2023-08-31T10:16:22;101.10;;;57.90;;
8001;SDS011;4046;48.774;8.732;2023-08-31T10:18:50;94.30;;;54.50;;
8001;SDS011;4046;48.774;8.732;2023-08-31T10:21:17;92.00;;;53.70;;
8001;SDS011;4046;48.774;8.732;2023-08-31T10:23:47;96.13;;;55.13;;
8001;SDS011;4046;48.774;8.732;2023-08-31T10:26:26;85.43;;;51.00;;
8001;SDS011;4046;48.774;8.732;2023-08-31T10:28:54;79.07;;;51.10;;
8001;SDS011;4046;48.774;8.732;2023-08-31T10:31:22;83.33;;;50.10;;
8001;SDS011;4046;48.774;8.732;2023-08-31T10:34:01;85.00;;;50.73;;
8001;SDS011;4046;48.774;8.732;2023-08-31T10:39:05;75.67;;;46.57;;
8001;SDS011;4046;48.774;8.732;2023-08-31T10:41:56;71.77;;;47.00;;
8001;SDS011;4046;48.774;8.732;2023-08-31T10:44:26;73.27;;;46.90;;
8001;SDS011;4046;48.774;8.732;2023-08-31T10:46:53;73.33;;;45.47;;
8001;SDS011;4046;48.774;8.732;2023-08-31T10:49:20;65.73;;;44.60;;
8001;SDS011;4046;48.774;8.732;2023-08-31T10:51:57;76.50;;;46.00;;
8001;SDS011;4046;48.774;8.732;2023-08-31T10:54:40;70.27;;;44.77;;
8001;SDS011;4046;48.774;8.732;2023-08-31T10:57:06;66.03;;;41.20;;
8001;SDS011;4046;48.774;8.732;2023-08-31T11:02:26;61.00;;;40.20;;
8001;SDS011;4046;48.774;8.732;2023-08-31T11:07:32;62.70;;;38.60;;
8001;SDS011;4046;48.774;8.732;2023-08-31T11:10:16;61.33;;;37.93;;
8001;SDS011;4046;48.774;8.732;2023-08-31T11:12:51;57.60;;;37.93;;
8001;SDS011;4046;48.774;8.732;2023-08-31T11:15:22;65.70;;;38.30;;
8001;SDS011;4046;48.774;8.732;2023-08-31T11:17:51;57.27;;;36.53;;
8001;SDS011;4046;48.774;8.732;2023-08-31T11:20:19;57.00;;;35.90;;
8001;SDS011;4046;48.774;8.732;2023-08-31T11:22:46;57.17;;;34.80;;
8001;SDS011;4046;48.774;8.732;2023-08-31T11:25:18;54.47;;;33.53;;
8001;SDS011;4046;48.774;8.732;2023-08-31T11:28:01;56.27;;;34.73;;
8001;SDS011;4046;48.774;8.732;2023-08-31T11:30:31;39.87;;;25.80;;
8001;SDS011;4046;48.774;8.732;2023-08-31T11:33:01;39.43;;;27.27;;
8001;SDS011;4046;48.774;8.732;2023-08-31T11:35:31;43.03;;;27.10;;
8001;SDS011;4046;48.774;8.732;2023-08-31T11:38:02;43.13;;;28.37;;
8001;SDS011;4046;48.774;8.732;2023-08-31T11:40:29;39.27;;;26.67;;
8001;SDS011;4046;48.774;8.732;2023-08-31T11:42:56;41.97;;;27.17;;
8001;SDS011;4046;48.774;8.732;2023-08-31T11:45:25;36.60;;;26.27;;
8001;SDS011;4046;48.774;8.732;2023-08-31T11:47:52;38.23;;;26.40;;
8001;SDS011;4046;48.774;8.732;2023-08-31T11:50:19;38.50;;;25.00;;
8001;SDS011;4046;48.774;8.732;2023-08-31T11:52:45;35.00;;;24.57;;
8001;SDS011;4046;48.774;8.732;2023-08-31T11:55:13;39.37;;;27.70;;
8001;SDS011;4046;48.774;8.732;2023-08-31T11:57:52;38.20;;;25.70;;
8001;SDS011;4046;48.774;8.732;2023-08-31T12:00:20;37.20;;;25.37;;
8001;SDS011;4046;48.774;8.732;2023-08-31T12:02:55;42.13;;;25.07;;
8001;SDS011;4046;48.774;8.732;2023-08-31T12:05:25;35.50;;;24.30;;
8001;SDS011;4046;48.774;8.732;2023-08-31T12:07:54;36.60;;;23.10;;
8001;SDS011;4046;48.774;8.732;2023-08-31T12:10:20;33.10;;;22.77;;
8001;SDS011;4046;48.774;8.732;2023-08-31T12:12:49;32.30;;;22.73;;
8001;SDS011;4046;48.774;8.732;2023-08-31T12:15:18;34.20;;;22.80;;
8001;SDS011;4046;48.774;8.732;2023-08-31T12:17:47;35.87;;;22.63;;
8001;SDS011;4046;48.774;8.732;2023-08-31T12:20:19;30.87;;;21.60;;
8001;SDS011;4046;48.774;8.732;2023-08-31T12:22:51;28.70;;;20.63;;
8001;SDS011;4046;48.774;8.732;2023-08-31T12:25:21;30.90;;;21.73;;
8001;SDS011;4046;48.774;8.732;2023-08-31T12:27:47;26.80;;;19.03;;
8001;SDS011;4046;48.774;8.732;2023-08-31T12:30:13;30.27;;;19.70;;
8001;SDS011;4046;48.774;8.732;2023-08-31T12:32:39;28.77;;;19.50;;
8001;SDS011;4046;48.774;8.732;2023-08-31T12:35:04;25.50;;;19.80;;
8001;SDS011;4046;48.774;8.732;2023-08-31T12:37:31;27.07;;;20.30;;
8001;SDS011;4046;48.774;8.732;2023-08-31T12:39:57;25.10;;;17.90;;
8001;SDS011;4046;48.774;8.732;2023-08-31T12:42:23;25.90;;;17.80;;
8001;SDS011;4046;48.774;8.732;2023-08-31T12:44:49;25.70;;;19.50;;
8001;SDS011;4046;48.774;8.732;2023-08-31T12:47:15;25.77;;;18.30;;
8001;SDS011;4046;48.774;8.732;2023-08-31T12:49:41;25.50;;;17.57;;
8001;SDS011;4046;48.774;8.732;2023-08-31T12:52:07;24.93;;;18.00;;
8001;SDS011;4046;48.774;8.732;2023-08-31T12:54:33;21.13;;;17.00;;
8001;SDS011;4046;48.774;8.732;2023-08-31T12:56:59;25.10;;;18.00;;
8001;SDS011;4046;48.774;8.732;2023-08-31T12:59:25;24.37;;;16.60;;
8001;SDS011;4046;48.774;8.732;2023-08-31T13:01:50;20.70;;;15.40;;
8001;SDS011;4046;48.774;8.732;2023-08-31T13:04:16;21.83;;;16.30;;
8001;SDS011;4046;48.774;8.732;2023-08-31T13:06:42;27.13;;;17.63;;
8001;SDS011;4046;48.774;8.732;2023-08-31T13:09:08;21.77;;;16.30;;
8001;SDS011;4046;48.774;8.732;2023-08-31T13:11:34;21.00;;;15.90;;
8001;SDS011;4046;48.774;8.732;2023-08-31T13:14:00;19.47;;;14.87;;
8001;SDS011;4046;48.774;8.732;2023-08-31T13:16:26;21.63;;;14.90;;
8001;SDS011;4046;48.774;8.732;2023-08-31T13:18:52;21.30;;;15.40;;
8001;SDS011;4046;48.774;8.732;2023-08-31T13:21:17;17.20;;;14.80;;
8001;SDS011;4046;48.774;8.732;2023-08-31T13:23:43;19.87;;;14.33;;
8001;SDS011;4046;48.774;8.732;2023-08-31T13:26:10;19.30;;;14.90;;
8001;SDS011;4046;48.774;8.732;2023-08-31T13:28:36;26.23;;;14.90;;
8001;SDS011;4046;48.774;8.732;2023-08-31T13:31:01;20.03;;;13.70;;
8001;SDS011;4046;48.774;8.732;2023-08-31T13:33:28;19.27;;;13.37;;
8001;SDS011;4046;48.774;8.732;2023-08-31T13:35:56;19.03;;;13.40;;
8001;SDS011;4046;48.774;8.732;2023-08-31T13:38:23;15.10;;;12.37;;
8001;SDS011;4046;48.774;8.732;2023-08-31T13:40:53;18.20;;;12.90;;
8001;SDS011;4046;48.774;8.732;2023-08-31T13:43:21;16.43;;;13.23;;
8001;SDS011;4046;48.774;8.732;2023-08-31T13:45:48;17.40;;;13.70;;
8001;SDS011;4046;48.774;8.732;2023-08-31T13:48:14;16.83;;;12.43;;
8001;SDS011;4046;48.774;8.732;2023-08-31T13:50:39;14.83;;;12.07;;
8001;SDS011;4046;48.774;8.732;2023-08-31T13:53:05;17.67;;;12.20;;
8001;SDS011;4046;48.774;8.732;2023-08-31T13:55:31;14.73;;;11.63;;
8001;SDS011;4046;48.774;8.732;2023-08-31T13:58:03;13.13;;;11.20;;
8001;SDS011;4046;48.774;8.732;2023-08-31T14:00:33;14.07;;;11.37;;
8001;SDS011;4046;48.774;8.732;2023-08-31T14:02:59;15.87;;;12.00;;
8001;SDS011;4046;48.774;8.732;2023-08-31T14:05:28;13.30;;;11.13;;
8001;SDS011;4046;48.774;8.732;2023-08-31T14:07:55;15.40;;;10.83;;
8001;SDS011;4046;48.774;8.732;2023-08-31T14:10:21;17.20;;;11.50;;
8001;SDS011;4046;48.774;8.732;2023-08-31T14:12:47;17.20;;;11.40;;
8001;SDS011;4046;48.774;8.732;2023-08-31T14:15:13;16.37;;;10.40;;
8001;SDS011;4046;48.774;8.732;2023-08-31T14:17:39;14.43;;;9.77;;
8001;SDS011;4046;48.774;8.732;2023-08-31T14:20:05;17.50;;;11.20;;
8001;SDS011;4046;48.774;8.732;2023-08-31T14:22:34;16.47;;;10.87;;
8001;SDS011;4046;48.774;8.732;2023-08-31T14:25:00;14.47;;;10.03;;
8001;SDS011;4046;48.774;8.732;2023-08-31T14:27:26;12.80;;;9.73;;
8001;SDS011;4046;48.774;8.732;2023-08-31T14:29:53;12.70;;;10.07;;
8001;SDS011;4046;48.774;8.732;2023-08-31T14:32:18;11.90;;;9.33;;
8001;SDS011;4046;48.774;8.732;2023-08-31T14:34:44;10.83;;;9.60;;
8001;SDS011;4046;48.774;8.732;2023-08-31T14:37:10;11.97;;;9.77;;
8001;SDS011;4046;48.774;8.732;2023-08-31T14:39:35;12.27;;;9.37;;
8001;SDS011;4046;48.774;8.732;2023-08-31T14:42:01;10.40;;;9.10;;
8001;SDS011;4046;48.774;8.732;2023-08-31T14:44:28;9.90;;;8.70;;
8001;SDS011;4046;48.774;8.732;2023-08-31T14:46:53;9.90;;;8.70;;
8001;SDS011;4046;48.774;8.732;2023-08-31T14:49:21;10.03;;;8.40;;
8001;SDS011;4046;48.774;8.732;2023-08-31T14:51:48;10.87;;;9.20;;
8001;SDS011;4046;48.774;8.732;2023-08-31T14:54:14;10.30;;;9.10;;
8001;SDS011;4046;48.774;8.732;2023-08-31T14:56:40;10.43;;;8.63;;
8001;SDS011;4046;48.774;8.732;2023-08-31T14:59:06;10.00;;;8.47;;
8001;SDS011;4046;48.774;8.732;2023-08-31T15:01:31;9.87;;;8.00;;
8001;SDS011;4046;48.774;8.732;2023-08-31T15:03:57;11.37;;;8.40;;
8001;SDS011;4046;48.774;8.732;2023-08-31T15:06:23;10.50;;;7.80;;
8001;SDS011;4046;48.774;8.732;2023-08-31T15:08:48;10.77;;;7.73;;
8001;SDS011;4046;48.774;8.732;2023-08-31T15:11:14;8.90;;;7.17;;
8001;SDS011;4046;48.774;8.732;2023-08-31T15:13:49;8.10;;;6.63;;
8001;SDS011;4046;48.774;8.732;2023-08-31T15:16:14;8.67;;;6.93;;
8001;SDS011;4046;48.774;8.732;2023-08-31T15:18:41;8.27;;;6.60;;
8001;SDS011;4046;48.774;8.732;2023-08-31T15:21:06;10.43;;;6.80;;
8001;SDS011;4046;48.774;8.732;2023-08-31T15:23:32;7.13;;;6.43;;